| time (UTC) | temp C | wind direction | speed KPH | gust KPH | rain 1hr cm | rain 24hr cm | rain mn cm | humidity % | barometer mb |
| 20260906210709 | 28 | 133 | 20.9 | 20.9 | 0.00 | 0.03 | 0.03 | 56 | 1014.1 |
| 20260906210209 | 28 | 168 | 9.7 | 14.5 | 0.00 | 0.03 | 0.03 | 58 | 1014.0 |
| 20260906205704 | 28 | 150 | 17.7 | 25.7 | 0.00 | 0.03 | 0.03 | 56 | 1014.0 |
| 20260906205200 | 28 | 144 | 19.3 | 24.1 | 0.00 | 0.03 | 0.03 | 57 | 1014.3 |
| 20260906204654 | 28 | 127 | 25.7 | 29.0 | 0.00 | 0.03 | 0.03 | 56 | 1014.3 |
| 20260906204149 | 27 | 178 | 14.5 | 24.1 | 0.00 | 0.03 | 0.03 | 59 | 1014.5 |
| 20260906203649 | 27 | 135 | 17.7 | 25.7 | 0.00 | 0.03 | 0.03 | 57 | 1014.5 |
| 20260906203144 | 27 | 189 | 12.9 | 16.1 | 0.00 | 0.03 | 0.03 | 59 | 1014.5 |
| 20260906202641 | 27 | 197 | 17.7 | 19.3 | 0.00 | 0.03 | 0.03 | 58 | 1014.5 |
| 20260906202139 | 27 | 161 | 12.9 | 22.5 | 0.00 | 0.03 | 0.03 | 57 | 1014.5 |
| 20260906201635 | 27 | 135 | 12.9 | 16.1 | 0.00 | 0.03 | 0.03 | 60 | 1014.9 |
| 20260906201134 | 27 | 145 | 17.7 | 25.7 | 0.00 | 0.03 | 0.03 | 61 | 1014.7 |
| 20260906200631 | 27 | 146 | 17.7 | 27.4 | 0.00 | 0.03 | 0.03 | 60 | 1014.9 |
| 20260906200126 | 26 | 155 | 9.7 | 19.3 | 0.00 | 0.03 | 0.03 | 62 | 1014.9 |
| 20260906195621 | 27 | 151 | 19.3 | 24.1 | 0.00 | 0.03 | 0.03 | 64 | 1014.9 |
| 20260906195118 | 27 | 149 | 17.7 | 20.9 | 0.00 | 0.03 | 0.03 | 61 | 1015.1 |
| 20260906194613 | 26 | 164 | 11.3 | 16.1 | 0.00 | 0.03 | 0.03 | 62 | 1014.9 |
| 20260906194108 | 26 | 178 | 19.3 | 24.1 | 0.00 | 0.03 | 0.03 | 63 | 1014.9 |
| 20260906193603 | 26 | 189 | 19.3 | 20.9 | 0.00 | 0.03 | 0.03 | 63 | 1015.1 |
| 20260906193058 | 26 | 191 | 16.1 | 22.5 | 0.00 | 0.03 | 0.03 | 63 | 1015.2 |
| 20260906192554 | 26 | 170 | 11.3 | 20.9 | 0.00 | 0.03 | 0.03 | 64 | 1015.1 |
| 20260906192053 | 26 | 144 | 17.7 | 20.9 | 0.00 | 0.03 | 0.03 | 62 | 1015.2 |
| 20260906191548 | 26 | 162 | 12.9 | 12.9 | 0.00 | 0.03 | 0.03 | 64 | 1015.4 |
| 20260906191047 | 26 | 164 | 17.7 | 24.1 | 0.00 | 0.03 | 0.03 | 63 | 1015.3 |
| 20260906190546 | 26 | 178 | 16.1 | 27.4 | 0.00 | 0.03 | 0.03 | 63 | 1015.4 |
| 20260906190042 | 26 | 147 | 16.1 | 19.3 | 0.00 | 0.03 | 0.03 | 65 | 1015.4 |
| 20260906185540 | 26 | 164 | 17.7 | 22.5 | 0.00 | 0.03 | 0.03 | 65 | 1015.7 |
| 20260906185039 | 26 | 187 | 17.7 | 22.5 | 0.00 | 0.03 | 0.03 | 62 | 1015.7 |
| 20260906184535 | 26 | 188 | 11.3 | 19.3 | 0.00 | 0.03 | 0.03 | 63 | 1015.7 |
| 20260906184030 | 25 | 152 | 12.9 | 17.7 | 0.00 | 0.03 | 0.03 | 65 | 1015.7 |
| 20260906183526 | 25 | 173 | 11.3 | 17.7 | 0.00 | 0.03 | 0.03 | 67 | 1015.7 |
| 20260906183022 | 25 | 173 | 14.5 | 20.9 | 0.00 | 0.03 | 0.03 | 68 | 1016.0 |
| 20260906182517 | 25 | 184 | 16.1 | 19.3 | 0.00 | 0.03 | 0.03 | 68 | 1016.0 |
| 20260906182013 | 25 | 177 | 20.9 | 29.0 | 0.00 | 0.03 | 0.03 | 65 | 1016.3 |
| 20260906181508 | 25 | 194 | 16.1 | 27.4 | 0.00 | 0.03 | 0.03 | 68 | 1016.4 |
| 20260906181004 | 24 | 192 | 20.9 | 29.0 | 0.00 | 0.03 | 0.03 | 66 | 1016.7 |
| 20260906180458 | 24 | 151 | 20.9 | 25.7 | 0.00 | 0.03 | 0.03 | 68 | 1016.5 |
| 20260906175956 | 24 | 162 | 22.5 | 25.7 | 0.00 | 0.03 | 0.03 | 70 | 1016.7 |
| 20260906175451 | 24 | 167 | 27.4 | 30.6 | 0.00 | 0.03 | 0.03 | 71 | 1016.7 |
| 20260906174949 | 24 | 191 | 17.7 | 27.4 | 0.00 | 0.03 | 0.03 | 71 | 1016.9 |
| 20260906174443 | 23 | 162 | 17.7 | 27.4 | 0.00 | 0.03 | 0.03 | 71 | 1017.0 |
| 20260906173939 | 23 | 186 | 17.7 | 27.4 | 0.00 | 0.03 | 0.03 | 70 | 1017.0 |
| 20260906173434 | 23 | 182 | 20.9 | 27.4 | 0.00 | 0.03 | 0.03 | 71 | 1017.1 |
| 20260906172933 | 23 | 170 | 20.9 | 25.7 | 0.00 | 0.03 | 0.03 | 73 | 1017.1 |
| 20260906172430 | 23 | 184 | 29.0 | 29.0 | 0.00 | 0.03 | 0.03 | 71 | 1017.1 |
| 20260906171925 | 23 | 178 | 12.9 | 30.6 | 0.00 | 0.03 | 0.03 | 73 | 1017.5 |
| 20260906171419 | 23 | 173 | 19.3 | 27.4 | 0.00 | 0.03 | 0.03 | 71 | 1017.2 |
| 20260906170915 | 23 | 177 | 24.1 | 30.6 | 0.00 | 0.03 | 0.03 | 70 | 1017.2 |
| 20260906170411 | 23 | 174 | 16.1 | 27.4 | 0.00 | 0.03 | 0.03 | 72 | 1017.2 |
| 20260906165908 | 23 | 186 | 20.9 | 24.1 | 0.00 | 0.03 | 0.03 | 72 | 1017.3 |
| 20260906165407 | 22 | 169 | 25.7 | 29.0 | 0.00 | 0.03 | 0.03 | 73 | 1017.2 |
| 20260906164902 | 22 | 164 | 20.9 | 30.6 | 0.00 | 0.03 | 0.03 | 74 | 1017.1 |
| 20260906164400 | 22 | 160 | 17.7 | 27.4 | 0.00 | 0.03 | 0.03 | 75 | 1017.5 |
| 20260906163856 | 22 | 157 | 20.9 | 29.0 | 0.00 | 0.03 | 0.03 | 73 | 1017.5 |
| 20260906163347 | 22 | 177 | 24.1 | 24.1 | 0.00 | 0.03 | 0.03 | 72 | 1017.5 |
| 20260906162845 | 22 | 160 | 20.9 | 27.4 | 0.00 | 0.03 | 0.03 | 73 | 1017.6 |
| 20260906162343 | 22 | 177 | 20.9 | 25.7 | 0.00 | 0.03 | 0.03 | 72 | 1017.3 |
| 20260906161839 | 22 | 150 | 24.1 | 25.7 | 0.00 | 0.03 | 0.03 | 72 | 1017.6 |
| 20260906161338 | 22 | 151 | 19.3 | 25.7 | 0.00 | 0.03 | 0.03 | 74 | 1017.7 |
| 20260906160837 | 22 | 157 | 9.7 | 19.3 | 0.00 | 0.03 | 0.03 | 73 | 1017.5 |
| 20260906160331 | 22 | 180 | 14.5 | 17.7 | 0.00 | 0.03 | 0.03 | 74 | 1017.8 |
| 20260906155829 | 21 | 192 | 14.5 | 16.1 | 0.00 | 0.03 | 0.03 | 75 | 1017.9 |
| 20260906155323 | 21 | 210 | 24.1 | 24.1 | 0.00 | 0.03 | 0.03 | 74 | 1018.0 |
| 20260906154820 | 21 | 174 | 11.3 | 17.7 | 0.00 | 0.03 | 0.03 | 75 | 1017.7 |
| 20260906154314 | 21 | 179 | 12.9 | 16.1 | 0.00 | 0.03 | 0.03 | 77 | 1017.8 |
| 20260906153812 | 21 | 172 | 12.9 | 14.5 | 0.00 | 0.03 | 0.03 | 77 | 1017.6 |
| 20260906153307 | 20 | 180 | 17.7 | 17.7 | 0.00 | 0.03 | 0.03 | 76 | 1017.8 |
| 20260906152802 | 20 | 182 | 9.7 | 20.9 | 0.00 | 0.03 | 0.03 | 75 | 1017.8 |
| 20260906152257 | 20 | 208 | 3.2 | 14.5 | 0.00 | 0.03 | 0.03 | 76 | 1017.9 |
| 20260906151756 | 20 | 191 | 8.0 | 16.1 | 0.00 | 0.03 | 0.03 | 77 | 1017.9 |
| 20260906151252 | 20 | 186 | 12.9 | 16.1 | 0.00 | 0.03 | 0.03 | 77 | 1017.9 |
| 20260906150747 | 20 | 204 | 12.9 | 14.5 | 0.00 | 0.03 | 0.03 | 77 | 1018.1 |
| 20260906150243 | 20 | 180 | 9.7 | 14.5 | 0.00 | 0.03 | 0.03 | 78 | 1017.9 |
| 20260906145742 | 20 | 212 | 12.9 | 14.5 | 0.00 | 0.03 | 0.03 | 77 | 1018.1 |
| 20260906145240 | 20 | 201 | 6.4 | 8.0 | 0.00 | 0.03 | 0.03 | 78 | 1018.1 |
| 20260906144736 | 19 | 189 | 8.0 | 9.7 | 0.00 | 0.03 | 0.03 | 80 | 1018.0 |
| 20260906144230 | 18 | 196 | 6.4 | 8.0 | 0.00 | 0.03 | 0.03 | 82 | 1017.9 |
| 20260906143729 | 18 | 161 | 4.8 | 6.4 | 0.00 | 0.03 | 0.03 | 84 | 1017.9 |
| 20260906143227 | 18 | 168 | 4.8 | 4.8 | 0.00 | 0.03 | 0.03 | 82 | 1018.0 |
| 20260906142726 | 18 | 226 | 3.2 | 4.8 | 0.00 | 0.03 | 0.03 | 83 | 1018.4 |
| 20260906142221 | 18 | 243 | 3.2 | 4.8 | 0.00 | 0.03 | 0.03 | 84 | 1018.5 |
| 20260906141720 | 18 | 197 | 0.0 | 3.2 | 0.00 | 0.03 | 0.03 | 84 | 1018.4 |
| 20260906141215 | 18 | 249 | 3.2 | 4.8 | 0.00 | 0.03 | 0.03 | 84 | 1018.6 |
| 20260906140715 | 18 | 256 | 3.2 | 4.8 | 0.00 | 0.03 | 0.03 | 84 | 1018.6 |
| 20260906140210 | 18 | 236 | 4.8 | 6.4 | 0.00 | 0.03 | 0.03 | 83 | 1018.8 |
| 20260906135706 | 18 | 309 | 0.0 | 1.6 | 0.00 | 0.03 | 0.03 | 85 | 1018.5 |
| 20260906135202 | 18 | 89 | 0.0 | 3.2 | 0.00 | 0.03 | 0.03 | 87 | 1018.5 |
| 20260906134658 | 17 | 123 | 8.0 | 8.0 | 0.00 | 0.03 | 0.03 | 89 | 1018.4 |
| 20260906134153 | 17 | 142 | 3.2 | 3.2 | 0.00 | 0.03 | 0.03 | 90 | 1018.4 |
| 20260906133649 | 17 | 98 | 4.8 | 4.8 | 0.00 | 0.03 | 0.03 | 90 | 1018.2 |
| 20260906133144 | 17 | 1 | 1.6 | 3.2 | 0.00 | 0.03 | 0.03 | 91 | 1018.1 |
| 20260906132639 | 17 | 114 | 3.2 | 6.4 | 0.00 | 0.03 | 0.03 | 91 | 1018.2 |
| 20260906132135 | 17 | 121 | 9.7 | 11.3 | 0.00 | 0.03 | 0.03 | 90 | 1017.8 |
| 20260906131630 | 17 | 101 | 4.8 | 8.0 | 0.00 | 0.03 | 0.03 | 90 | 1018.1 |
| 20260906131125 | 17 | 72 | 6.4 | 6.4 | 0.00 | 0.03 | 0.03 | 89 | 1018.4 |
| 20260906130621 | 17 | 10 | 6.4 | 8.0 | 0.00 | 0.03 | 0.03 | 89 | 1018.4 |
| 20260906130116 | 17 | 49 | 3.2 | 6.4 | 0.00 | 0.03 | 0.03 | 89 | 1018.2 |
| 20260906125613 | 17 | 103 | 6.4 | 6.4 | 0.00 | 0.03 | 0.03 | 90 | 1018.1 |
| 20260906125112 | 16 | 128 | 3.2 | 8.0 | 0.00 | 0.03 | 0.03 | 90 | 1018.1 |
| 20260906124608 | 16 | 109 | 9.7 | 14.5 | 0.00 | 0.03 | 0.03 | 91 | 1017.9 |
| 20260906124103 | 16 | 115 | 8.0 | 9.7 | 0.00 | 0.03 | 0.03 | 91 | 1017.9 |
| 20260906123602 | 16 | 113 | 9.7 | 14.5 | 0.00 | 0.03 | 0.03 | 91 | 1017.6 |
| 20260906123057 | 16 | 147 | 8.0 | 8.0 | 0.00 | 0.03 | 0.03 | 92 | 1017.5 |
| 20260906122556 | 16 | 121 | 6.4 | 6.4 | 0.00 | 0.03 | 0.03 | 92 | 1017.6 |
| 20260906122052 | 16 | 131 | 6.4 | 6.4 | 0.00 | 0.03 | 0.03 | 92 | 1017.7 |
| 20260906121548 | 16 | 229 | 0.0 | 3.2 | 0.00 | 0.03 | 0.03 | 92 | 1017.8 |
| 20260906121045 | 16 | 167 | 4.8 | 6.4 | 0.00 | 0.03 | 0.03 | 90 | 1017.9 |
| 20260906120539 | 16 | 348 | 0.0 | 6.4 | 0.00 | 0.03 | 0.03 | 91 | 1017.6 |
| 20260906120037 | 16 | 16 | 6.4 | 8.0 | 0.00 | 0.03 | 0.03 | 91 | 1017.7 |
| 20260906115536 | 16 | 45 | 3.2 | 6.4 | 0.00 | 0.03 | 0.03 | 90 | 1017.7 |
| 20260906115032 | 16 | 332 | 11.3 | 12.9 | 0.00 | 0.03 | 0.03 | 89 | 1017.7 |
| 20260906114526 | 17 | 1 | 1.6 | 3.2 | 0.00 | 0.03 | 0.03 | 89 | 1017.5 |
| 20260906114022 | 16 | 253 | 4.8 | 4.8 | 0.00 | 0.03 | 0.03 | 90 | 1017.5 |
| 20260906113520 | 16 | 156 | 3.2 | 8.0 | 0.00 | 0.03 | 0.03 | 90 | 1017.3 |
| 20260906113016 | 17 | 191 | 9.7 | 11.3 | 0.00 | 0.03 | 0.03 | 88 | 1017.2 |
| 20260906112511 | 17 | 158 | 11.3 | 12.9 | 0.00 | 0.03 | 0.03 | 87 | 1017.2 |
| 20260906112007 | 17 | 164 | 6.4 | 8.0 | 0.00 | 0.03 | 0.03 | 87 | 1017.5 |
| 20260906111501 | 17 | 269 | 0.0 | 3.2 | 0.00 | 0.03 | 0.03 | 86 | 1017.5 |
| 20260906110956 | 17 | 231 | 3.2 | 6.4 | 0.00 | 0.03 | 0.03 | 85 | 1017.7 |
| 20260906110450 | 17 | 330 | 3.2 | 6.4 | 0.00 | 0.03 | 0.03 | 84 | 1017.3 |
| 20260906105949 | 17 | 50 | 6.4 | 6.4 | 0.00 | 0.03 | 0.03 | 86 | 1017.2 |
| 20260906105445 | 17 | 302 | 8.0 | 8.0 | 0.00 | 0.03 | 0.03 | 86 | 1017.1 |
| 20260906104942 | 17 | 113 | 6.4 | 8.0 | 0.00 | 0.03 | 0.03 | 84 | 1017.0 |
| 20260906104440 | 17 | 234 | 3.2 | 4.8 | 0.00 | 0.03 | 0.03 | 84 | 1017.3 |
| 20260906103939 | 17 | 89 | 3.2 | 8.0 | 0.00 | 0.03 | 0.03 | 82 | 1017.2 |
| 20260906103438 | 17 | 130 | 6.4 | 8.0 | 0.00 | 0.03 | 0.03 | 81 | 1017.0 |
| 20260906102933 | 17 | 170 | 6.4 | 6.4 | 0.00 | 0.03 | 0.03 | 81 | 1017.1 |
| 20260906102433 | 17 | 109 | 8.0 | 9.7 | 0.00 | 0.03 | 0.03 | 80 | 1016.7 |
| 20260906101927 | 17 | 109 | 1.6 | 3.2 | 0.00 | 0.03 | 0.03 | 82 | 1016.8 |
| 20260906101423 | 17 | 104 | 3.2 | 6.4 | 0.00 | 0.03 | 0.03 | 83 | 1016.8 |
| 20260906100918 | 17 | 138 | 9.7 | 12.9 | 0.00 | 0.03 | 0.03 | 82 | 1016.9 |
| 20260906100417 | 17 | 164 | 8.0 | 9.7 | 0.00 | 0.03 | 0.03 | 81 | 1017.1 |
| 20260906095912 | 17 | 151 | 6.4 | 8.0 | 0.00 | 0.03 | 0.03 | 81 | 1016.8 |
| 20260906095408 | 17 | 143 | 6.4 | 6.4 | 0.00 | 0.03 | 0.03 | 80 | 1017.0 |
| 20260906094902 | 17 | 179 | 3.2 | 6.4 | 0.00 | 0.03 | 0.03 | 80 | 1017.0 |
| 20260906094357 | 17 | 199 | 4.8 | 4.8 | 0.00 | 0.03 | 0.03 | 81 | 1016.8 |
| 20260906093853 | 17 | 135 | 0.0 | 3.2 | 0.00 | 0.03 | 0.03 | 82 | 1016.8 |
| 20260906093349 | 17 | 202 | 0.0 | 3.2 | 0.00 | 0.03 | 0.03 | 83 | 1016.8 |
| 20260906092843 | 17 | 180 | 8.0 | 9.7 | 0.00 | 0.03 | 0.03 | 82 | 1016.7 |
| 20260906092337 | 17 | 117 | 6.4 | 8.0 | 0.00 | 0.03 | 0.03 | 81 | 1016.4 |
| 20260906091833 | 17 | 68 | 11.3 | 16.1 | 0.00 | 0.03 | 0.03 | 81 | 1016.3 |
| 20260906091329 | 17 | 95 | 16.1 | 17.7 | 0.00 | 0.03 | 0.03 | 79 | 1016.0 |
| 20260906090826 | 17 | 103 | 16.1 | 17.7 | 0.00 | 0.03 | 0.03 | 79 | 1016.2 |
| 20260906090324 | 17 | 103 | 16.1 | 22.5 | 0.00 | 0.03 | 0.03 | 79 | 1016.1 |
| 20260906085824 | 18 | 112 | 20.9 | 25.7 | 0.00 | 0.03 | 0.03 | 77 | 1016.2 |
| 20260906085318 | 18 | 124 | 29.0 | 32.2 | 0.00 | 0.03 | 0.03 | 77 | 1016.4 |
| 20260906084813 | 17 | 125 | 20.9 | 30.6 | 0.00 | 0.03 | 0.03 | 82 | 1016.4 |
| 20260906084312 | 17 | 137 | 22.5 | 24.1 | 0.00 | 0.03 | 0.03 | 82 | 1016.7 |
| 20260906083807 | 17 | 134 | 20.9 | 24.1 | 0.00 | 0.03 | 0.03 | 80 | 1016.7 |
| 20260906083303 | 18 | 130 | 20.9 | 25.7 | 0.00 | 0.03 | 0.03 | 77 | 1016.4 |
| 20260906082757 | 18 | 122 | 17.7 | 24.1 | 0.00 | 0.03 | 0.03 | 78 | 1016.8 |
| 20260906082252 | 18 | 111 | 16.1 | 24.1 | 0.00 | 0.03 | 0.03 | 78 | 1016.3 |
| 20260906081748 | 18 | 101 | 17.7 | 24.1 | 0.00 | 0.03 | 0.03 | 78 | 1016.4 |
| 20260906081243 | 18 | 108 | 19.3 | 25.7 | 0.00 | 0.03 | 0.03 | 79 | 1016.4 |
| 20260906080740 | 17 | 114 | 20.9 | 25.7 | 0.00 | 0.03 | 0.03 | 81 | 1016.4 |
| 20260906080236 | 17 | 112 | 22.5 | 25.7 | 0.00 | 0.03 | 0.03 | 83 | 1016.3 |
| 20260906075730 | 17 | 111 | 20.9 | 27.4 | 0.00 | 0.03 | 0.03 | 84 | 1016.3 |
| 20260906075230 | 17 | 111 | 22.5 | 24.1 | 0.00 | 0.03 | 0.03 | 86 | 1016.5 |
| 20260906074725 | 16 | 112 | 22.5 | 25.7 | 0.00 | 0.03 | 0.03 | 88 | 1016.5 |
| 20260906074225 | 16 | 114 | 16.1 | 22.5 | 0.00 | 0.03 | 0.03 | 90 | 1016.5 |
| 20260906073724 | 16 | 111 | 24.1 | 27.4 | 0.00 | 0.03 | 0.03 | 90 | 1016.8 |
| 20260906073220 | 16 | 109 | 22.5 | 27.4 | 0.00 | 0.03 | 0.03 | 90 | 1016.8 |
| 20260906072715 | 16 | 96 | 19.3 | 24.1 | 0.00 | 0.03 | 0.03 | 89 | 1016.4 |
| 20260906072211 | 16 | 74 | 16.1 | 19.3 | 0.00 | 0.03 | 0.03 | 89 | 1016.8 |
| 20260906071707 | 16 | 80 | 19.3 | 24.1 | 0.00 | 0.03 | 0.03 | 89 | 1016.7 |
| 20260906071206 | 16 | 75 | 24.1 | 24.1 | 0.00 | 0.03 | 0.03 | 90 | 1016.8 |
| 20260906070703 | 16 | 87 | 20.9 | 24.1 | 0.00 | 0.03 | 0.03 | 92 | 1016.8 |
| 20260906070158 | 16 | 87 | 22.5 | 25.7 | 0.00 | 0.03 | 0.03 | 92 | 1016.7 |
| 20260906065658 | 16 | 93 | 20.9 | 25.7 | 0.00 | 0.03 | 0.03 | 94 | 1016.8 |
| 20260906065154 | 16 | 84 | 17.7 | 24.1 | 0.00 | 0.03 | 0.03 | 95 | 1016.9 |
| 20260906064649 | 16 | 95 | 19.3 | 27.4 | 0.00 | 0.03 | 0.03 | 96 | 1017.0 |
| 20260906064144 | 16 | 94 | 17.7 | 29.0 | 0.00 | 0.03 | 0.03 | 97 | 1016.9 |
| 20260906063639 | 16 | 79 | 25.7 | 33.8 | 0.00 | 0.03 | 0.03 | 97 | 1017.1 |
| 20260906063135 | 16 | 88 | 27.4 | 41.8 | 0.00 | 0.03 | 0.03 | 98 | 1017.5 |
| 20260906062631 | 16 | 101 | 24.1 | 38.6 | 0.05 | 0.03 | 0.03 | 98 | 1017.5 |
| 20260906062129 | 16 | 94 | 37.0 | 43.5 | 0.00 | 0.00 | 0.00 | 98 | 1017.2 |
| 20260906061626 | 16 | 84 | 30.6 | 45.1 | 0.00 | 0.00 | 0.00 | 98 | 1017.5 |
| 20260906061125 | 16 | 82 | 33.8 | 40.2 | 0.00 | 0.00 | 0.00 | 98 | 1017.3 |
| 20260906060622 | 16 | 83 | 29.0 | 41.8 | 1.02 | 0.00 | 0.00 | 98 | 1017.5 |
| 20260906060119 | 16 | 98 | 29.0 | 40.2 | 1.37 | 0.00 | 0.00 | 98 | 1017.3 |
| 20260906055615 | 16 | 105 | 37.0 | 40.2 | 0.36 | 2.51 | 2.51 | 98 | 1017.2 |
| 20260906055109 | 16 | 92 | 20.9 | 33.8 | 0.48 | 2.49 | 2.49 | 98 | 1017.6 |
| 20260906054604 | 17 | 105 | 35.4 | 38.6 | 0.71 | 2.46 | 2.46 | 98 | 1017.6 |
| 20260906054059 | 17 | 106 | 29.0 | 30.6 | 0.43 | 2.39 | 2.39 | 97 | 1018.0 |
| 20260906053556 | 17 | 108 | 24.1 | 32.2 | 0.36 | 2.34 | 2.34 | 97 | 1017.8 |
| 20260906053051 | 17 | 107 | 27.4 | 35.4 | 0.30 | 2.31 | 2.31 | 97 | 1017.8 |
| 20260906052546 | 18 | 122 | 29.0 | 35.4 | 0.05 | 2.29 | 2.29 | 97 | 1017.9 |
| 20260906052044 | 18 | 119 | 27.4 | 35.4 | 0.00 | 2.26 | 2.26 | 98 | 1018.0 |
| 20260906051539 | 18 | 117 | 27.4 | 32.2 | 0.00 | 2.26 | 2.26 | 98 | 1018.2 |
| 20260906051034 | 18 | 128 | 22.5 | 24.1 | 0.00 | 2.26 | 2.26 | 98 | 1017.8 |
| 20260906050529 | 18 | 134 | 25.7 | 33.8 | 0.05 | 2.26 | 2.26 | 98 | 1018.2 |
| 20260906050024 | 18 | 144 | 24.1 | 32.2 | 0.05 | 2.26 | 2.26 | 98 | 1018.1 |
| 20260906045522 | 18 | 124 | 24.1 | 32.2 | 0.00 | 2.26 | 2.26 | 98 | 1017.9 |
| 20260906045018 | 18 | 127 | 27.4 | 30.6 | 0.00 | 2.26 | 2.26 | 98 | 1017.7 |
| 20260906044514 | 18 | 129 | 25.7 | 32.2 | 0.00 | 2.26 | 2.26 | 98 | 1017.7 |
| 20260906044010 | 18 | 126 | 27.4 | 35.4 | 0.00 | 2.26 | 2.26 | 98 | 1017.3 |
| 20260906043505 | 18 | 131 | 37.0 | 37.0 | 0.00 | 2.26 | 2.26 | 97 | 1017.2 |
| 20260906043001 | 18 | 127 | 25.7 | 29.0 | 0.18 | 2.26 | 2.26 | 97 | 1017.5 |
| 20260906042459 | 18 | 104 | 22.5 | 30.6 | 0.30 | 2.26 | 2.26 | 97 | 1017.7 |
| 20260906041959 | 18 | 122 | 30.6 | 32.2 | 0.18 | 2.21 | 2.21 | 97 | 1017.8 |
| 20260906041456 | 18 | 148 | 17.7 | 19.3 | 0.00 | 2.18 | 2.18 | 97 | 1018.1 |
| 20260906040955 | 18 | 72 | 11.3 | 16.1 | 0.13 | 2.18 | 2.18 | 97 | 1017.8 |
| 20260906040450 | 18 | 357 | 22.5 | 27.4 | 0.30 | 2.18 | 2.18 | 97 | 1017.8 |
| 20260906035946 | 18 | 342 | 22.5 | 24.1 | 0.66 | 2.16 | 2.16 | 97 | 1018.1 |
| 20260906035441 | 17 | 356 | 11.3 | 19.3 | 1.07 | 2.13 | 2.13 | 97 | 1018.8 |
| 20260906034936 | 17 | 338 | 9.7 | 12.9 | 2.16 | 2.06 | 2.06 | 96 | 1019.6 |
| 20260906034431 | 17 | 81 | 6.4 | 9.7 | 4.62 | 1.96 | 1.96 | 96 | 1019.7 |
| 20260906033927 | 17 | 232 | 11.3 | 20.9 | 5.77 | 1.57 | 1.57 | 96 | 1020.9 |
| 20260906033427 | 17 | 255 | 35.4 | 43.5 | 4.85 | 1.07 | 1.07 | 95 | 1021.2 |
| 20260906032923 | 17 | 240 | 37.0 | 57.9 | 2.95 | 0.61 | 0.61 | 95 | 1020.6 |
| 20260906032419 | 17 | 246 | 54.7 | 69.2 | 1.37 | 0.25 | 0.25 | 94 | 1019.8 |
| 20260906031913 | 17 | 234 | 46.7 | 57.9 | 0.61 | 0.10 | 0.10 | 92 | 1019.5 |
| 20260906031408 | 18 | 247 | 40.2 | 45.1 | 0.05 | 0.00 | 0.00 | 81 | 1018.9 |
| 20260906030903 | 18 | 290 | 27.4 | 35.4 | 0.00 | 0.00 | 0.00 | 78 | 1017.8 |
| 20260906030358 | 21 | 289 | 19.3 | 30.6 | 0.00 | 0.00 | 0.00 | 69 | 1017.3 |
| 20260906025853 | 21 | 324 | 27.4 | 35.4 | 0.00 | 0.00 | 0.00 | 62 | 1017.0 |
| 20260906025347 | 22 | 8 | 27.4 | 38.6 | 0.00 | 0.00 | 0.00 | 62 | 1016.8 |
| 20260906024845 | 21 | 15 | 20.9 | 32.2 | 0.00 | 0.00 | 0.00 | 65 | 1016.5 |
| 20260906024345 | 21 | 16 | 33.8 | 43.5 | 0.00 | 0.00 | 0.00 | 66 | 1015.7 |
| 20260906023840 | 21 | 31 | 22.5 | 37.0 | 0.00 | 0.00 | 0.00 | 68 | 1015.4 |
| 20260906023336 | 21 | 11 | 35.4 | 43.5 | 0.00 | 0.00 | 0.00 | 72 | 1015.3 |
| 20260906022832 | 21 | 27 | 38.6 | 45.1 | 0.00 | 0.00 | 0.00 | 72 | 1015.6 |
| 20260906022326 | 21 | 28 | 11.3 | 25.7 | 0.00 | 0.00 | 0.00 | 70 | 1015.7 |
| 20260906021822 | 23 | 16 | 29.0 | 48.3 | 0.00 | 0.00 | 0.00 | 62 | 1015.4 |
| 20260906021321 | 25 | 58 | 19.3 | 38.6 | 0.00 | 0.00 | 0.00 | 51 | 1015.1 |
| 20260906020816 | 23 | 61 | 14.5 | 17.7 | 0.00 | 0.00 | 0.00 | 55 | 1014.9 |
| 20260906020315 | 23 | 42 | 6.4 | 22.5 | 0.00 | 0.00 | 0.00 | 54 | 1015.2 |
| 20260906015810 | 23 | 42 | 22.5 | 25.7 | 0.00 | 0.00 | 0.00 | 53 | 1014.8 |
| 20260906015308 | 25 | 42 | 24.1 | 27.4 | 0.00 | 0.00 | 0.00 | 49 | 1014.9 |
| 20260906014803 | 26 | 58 | 11.3 | 16.1 | 0.00 | 0.00 | 0.00 | 47 | 1014.6 |
| 20260906014259 | 26 | 133 | 22.5 | 27.4 | 0.00 | 0.00 | 0.00 | 47 | 1014.1 |
| 20260906013754 | 26 | 134 | 20.9 | 30.6 | 0.00 | 0.00 | 0.00 | 45 | 1013.9 |
| 20260906013249 | 26 | 138 | 24.1 | 33.8 | 0.00 | 0.00 | 0.00 | 44 | 1013.9 |
| 20260906012745 | 26 | 144 | 27.4 | 30.6 | 0.00 | 0.00 | 0.00 | 43 | 1013.8 |
| 20260906012240 | 26 | 150 | 33.8 | 35.4 | 0.00 | 0.00 | 0.00 | 41 | 1013.6 |
| 20260906011735 | 26 | 144 | 30.6 | 32.2 | 0.00 | 0.00 | 0.00 | 39 | 1013.5 |
| 20260906011234 | 26 | 156 | 24.1 | 32.2 | 0.00 | 0.00 | 0.00 | 41 | 1013.1 |
| 20260906010730 | 26 | 161 | 35.4 | 37.0 | 0.00 | 0.00 | 0.00 | 42 | 1012.9 |
| 20260906010226 | 25 | 157 | 30.6 | 40.2 | 0.00 | 0.00 | 0.00 | 44 | 1013.1 |
| 20260906005721 | 25 | 160 | 25.7 | 40.2 | 0.00 | 0.00 | 0.00 | 46 | 1013.1 |
| 20260906005220 | 24 | 163 | 30.6 | 37.0 | 0.00 | 0.00 | 0.00 | 48 | 1013.2 |
| 20260906004719 | 24 | 146 | 33.8 | 38.6 | 0.00 | 0.00 | 0.00 | 48 | 1013.3 |
| 20260906004215 | 24 | 143 | 41.8 | 45.1 | 0.00 | 0.00 | 0.00 | 48 | 1013.7 |
| 20260906003709 | 23 | 153 | 33.8 | 41.8 | 0.00 | 0.00 | 0.00 | 50 | 1013.7 |
| 20260906003200 | 23 | 155 | 30.6 | 41.8 | 0.00 | 0.00 | 0.00 | 53 | 1014.1 |
| 20260906002700 | 22 | 158 | 41.8 | 49.9 | 0.00 | 0.00 | 0.00 | 54 | 1013.9 |
| 20260906002154 | 22 | 150 | 40.2 | 51.5 | 0.00 | 0.00 | 0.00 | 55 | 1013.9 |
| 20260906001650 | 23 | 135 | 46.7 | 64.4 | 0.00 | 0.00 | 0.00 | 52 | 1014.3 |
| 20260906001149 | 25 | 151 | 43.5 | 61.2 | 0.00 | 0.00 | 0.00 | 49 | 1014.1 |
| 20260906000645 | 25 | 146 | 40.2 | 54.7 | 0.00 | 0.00 | 0.00 | 50 | 1013.9 |
| 20260906000141 | 26 | 151 | 56.3 | 61.2 | 0.00 | 0.00 | 0.00 | 50 | 1013.3 |
| 20260905235639 | 28 | 144 | 40.2 | 48.3 | 0.00 | 0.00 | 0.00 | 44 | 1013.1 |
| 20260905235135 | 28 | 148 | 48.3 | 48.3 | 0.00 | 0.00 | 0.00 | 47 | 1012.9 |
| 20260905234630 | 30 | 159 | 33.8 | 48.3 | 0.00 | 0.00 | 0.00 | 42 | 1012.4 |
| 20260905234125 | 32 | 135 | 53.1 | 72.4 | 0.00 | 0.00 | 0.00 | 36 | 1012.1 |
| 20260905233620 | 33 | 124 | 27.4 | 33.8 | 0.00 | 0.00 | 0.00 | 35 | 1012.1 |
| 20260905233114 | 32 | 132 | 33.8 | 38.6 | 0.00 | 0.00 | 0.00 | 36 | 1012.2 |
| 20260905232610 | 33 | 134 | 37.0 | 38.6 | 0.00 | 0.00 | 0.00 | 34 | 1012.1 |
| 20260905232106 | 32 | 142 | 30.6 | 37.0 | 0.00 | 0.00 | 0.00 | 35 | 1011.8 |
| 20260905231600 | 33 | 131 | 20.9 | 40.2 | 0.00 | 0.00 | 0.00 | 34 | 1012.0 |
| 20260905231057 | 33 | 141 | 24.1 | 33.8 | 0.00 | 0.00 | 0.00 | 33 | 1011.9 |
| 20260905230556 | 33 | 136 | 27.4 | 33.8 | 0.00 | 0.00 | 0.00 | 34 | 1012.0 |
| 20260905230054 | 33 | 138 | 22.5 | 38.6 | 0.00 | 0.00 | 0.00 | 34 | 1012.0 |
| 20260905225549 | 32 | 157 | 22.5 | 38.6 | 0.00 | 0.00 | 0.00 | 34 | 1011.9 |
| 20260905225044 | 33 | 144 | 22.5 | 38.6 | 0.00 | 0.00 | 0.00 | 33 | 1011.8 |
| 20260905224544 | 33 | 134 | 27.4 | 35.4 | 0.00 | 0.00 | 0.00 | 32 | 1011.6 |
| 20260905224043 | 33 | 134 | 17.7 | 40.2 | 0.00 | 0.00 | 0.00 | 32 | 1011.6 |
| 20260905223541 | 33 | 157 | 27.4 | 41.8 | 0.00 | 0.00 | 0.00 | 32 | 1011.6 |
| 20260905223036 | 33 | 154 | 35.4 | 37.0 | 0.00 | 0.00 | 0.00 | 31 | 1011.8 |
| 20260905222531 | 33 | 129 | 30.6 | 37.0 | 0.00 | 0.00 | 0.00 | 31 | 1012.1 |
| 20260905222026 | 33 | 146 | 25.7 | 29.0 | 0.00 | 0.00 | 0.00 | 30 | 1012.2 |
| 20260905221522 | 33 | 149 | 24.1 | 35.4 | 0.00 | 0.00 | 0.00 | 29 | 1012.2 |
| 20260905221018 | 33 | 132 | 20.9 | 35.4 | 0.00 | 0.00 | 0.00 | 31 | 1012.2 |
| 20260905220514 | 33 | 119 | 20.9 | 30.6 | 0.00 | 0.00 | 0.00 | 29 | 1012.0 |
| 20260905220010 | 33 | 134 | 24.1 | 30.6 | 0.00 | 0.00 | 0.00 | 32 | 1012.0 |
| 20260905215504 | 33 | 168 | 19.3 | 33.8 | 0.00 | 0.00 | 0.00 | 31 | 1012.0 |
| 20260905215000 | 33 | 122 | 32.2 | 38.6 | 0.00 | 0.00 | 0.00 | 31 | 1012.3 |
| 20260905214456 | 33 | 119 | 25.7 | 38.6 | 0.00 | 0.00 | 0.00 | 33 | 1012.4 |
| 20260905213956 | 33 | 119 | 27.4 | 37.0 | 0.00 | 0.00 | 0.00 | 31 | 1012.6 |
| 20260905213452 | 33 | 140 | 25.7 | 38.6 | 0.00 | 0.00 | 0.00 | 34 | 1012.7 |
| 20260905212947 | 33 | 143 | 27.4 | 29.0 | 0.00 | 0.00 | 0.00 | 33 | 1012.6 |
| 20260905212442 | 33 | 138 | 25.7 | 40.2 | 0.00 | 0.00 | 0.00 | 32 | 1012.7 |
| 20260905211941 | 33 | 110 | 17.7 | 33.8 | 0.00 | 0.00 | 0.00 | 32 | 1012.8 |
| 20260905211437 | 33 | 133 | 25.7 | 32.2 | 0.00 | 0.00 | 0.00 | 32 | 1012.8 |
| 20260905210933 | 34 | 130 | 20.9 | 27.4 | 0.00 | 0.00 | 0.00 | 30 | 1012.9 |